Lynmouth, United Kingdom
Current Conditions -  °F | °C
As of 5:50 AM on Monday 26 Jan 2015 (Local Time) from EGDX Reporting Station
Light Rain Light Rain  
Wind Chill: 42°   Ceiling: 100
Heat Index: 48°   Visibility: 1.2mi
Dew Point: 48°   Wind: 18mph
Humidity: 100%   Direction: 260°W
Pressure: 30.15"   Gusts: NA
Location:  51.23°N, 3.83°W
Report Text: EGDX 260550Z AUTO 26016KT 2000 -RA OVC001/// 09/09 Q1021
Loading
Personal Weather Stations






























Interactive Weather Map New forecast layout! Learn more

10-Day Weather Forecast

Advertisements
Track Severe Weather on mobile